CFG146 EDDM-GCLP
Flight info
| Callsign | CFG146 |
|---|---|
| Flight time | N/A |
| Altitude | 35000 |
| Route | TURBU7Q TURBU Y107 TOBSO DCT BAKOR DCT NESTI DCT VOG DCT GEKBA DCT VAMTU DCT KOLON DCT GANGU DCT PADKO DCT DIVKO DCT MAMES DCT BISBA DCT BGR DCT NENDA DCT BCN DCT RODRA DCT PEXOT DCT EBROX DCT LOTOS DCT TORDU DCT DIKUT DCT SOPET DCT VLC DCT SERRA DCT ASTRO DCT POBOS DCT XEBAR DCT YES DCT MAMIS DCT BAZAS DCT VIBAS DCT MGA DCT BRIKE DCT VJF DCT TAVSI L82 RUNAX UL82 IBALU/N0457F370 UN857 TERTO |
| Aircraft | A320/M-SDE3FGHIRWY/LB1 |
Departure
| Time | N/A |
|---|---|
| Airport | Munich Airport (EDDM) |
Arrival
| Time | 2026-05-06 13:16 |
|---|---|
| Airport | Gran Canaria Airport (GCLP) |
| Time | Latitude | Longitude | Altitude | Speed | Heading |
|---|---|---|---|---|---|
| 2026-05-06 12:19 | 31.54491 | -11.18849 | 35026 ft | 406 kts | 226° |
| 2026-05-06 12:20 | 31.50487 | -11.23498 | 35044 ft | 405 kts | 226° |
| 2026-05-06 12:20 | 31.46490 | -11.28132 | 35052 ft | 404 kts | 226° |
| 2026-05-06 12:21 | 31.42490 | -11.32749 | 35051 ft | 404 kts | 226° |
| 2026-05-06 12:21 | 31.38474 | -11.37368 | 35031 ft | 405 kts | 226° |
| 2026-05-06 12:22 | 31.34456 | -11.41998 | 35025 ft | 406 kts | 226° |
| 2026-05-06 12:22 | 31.30430 | -11.46639 | 35018 ft | 407 kts | 226° |
| 2026-05-06 12:23 | 31.26393 | -11.51273 | 35007 ft | 406 kts | 226° |
| 2026-05-06 12:23 | 31.22366 | -11.55878 | 35037 ft | 404 kts | 226° |
| 2026-05-06 12:24 | 31.18384 | -11.60453 | 35054 ft | 404 kts | 226° |
| 2026-05-06 12:24 | 31.14364 | -11.65019 | 35056 ft | 403 kts | 225° |
| 2026-05-06 12:25 | 31.10197 | -11.69397 | 35053 ft | 403 kts | 223° |
| 2026-05-06 12:25 | 31.05986 | -11.73691 | 34615 ft | 400 kts | 223° |
| 2026-05-06 12:26 | 31.03902 | -11.75827 | 34148 ft | 398 kts | 224° |
| 2026-05-06 12:26 | 31.01816 | -11.77980 | 33901 ft | 402 kts | 224° |
| 2026-05-06 12:26 | 30.99723 | -11.80148 | 33630 ft | 404 kts | 224° |
| 2026-05-06 12:26 | 30.97623 | -11.82334 | 33332 ft | 405 kts | 224° |
| 2026-05-06 12:27 | 30.95528 | -11.84515 | 33072 ft | 401 kts | 224° |
| 2026-05-06 12:27 | 30.93454 | -11.86672 | 32808 ft | 400 kts | 224° |
| 2026-05-06 12:27 | 30.91375 | -11.88828 | 32544 ft | 401 kts | 224° |
| 2026-05-06 12:27 | 30.89287 | -11.90989 | 32291 ft | 402 kts | 224° |
| 2026-05-06 12:28 | 30.87186 | -11.93156 | 32034 ft | 405 kts | 224° |
| 2026-05-06 12:28 | 30.85074 | -11.95335 | 31785 ft | 407 kts | 224° |
| 2026-05-06 12:28 | 30.82950 | -11.97526 | 31528 ft | 409 kts | 224° |
| 2026-05-06 12:28 | 30.80820 | -11.99727 | 31276 ft | 411 kts | 224° |
| 2026-05-06 12:29 | 30.78675 | -12.01949 | 31030 ft | 414 kts | 224° |
| 2026-05-06 12:29 | 30.76521 | -12.04178 | 30786 ft | 416 kts | 224° |
| 2026-05-06 12:29 | 30.74346 | -12.06424 | 30549 ft | 420 kts | 223° |
| 2026-05-06 12:29 | 30.72148 | -12.08688 | 30309 ft | 424 kts | 223° |
| 2026-05-06 12:30 | 30.69929 | -12.10968 | 30060 ft | 427 kts | 223° |
| 2026-05-06 12:30 | 30.67703 | -12.13259 | 29771 ft | 429 kts | 223° |
| 2026-05-06 12:30 | 30.65471 | -12.15555 | 29479 ft | 427 kts | 223° |
| 2026-05-06 12:30 | 30.63251 | -12.17836 | 29204 ft | 426 kts | 223° |
| 2026-05-06 12:31 | 30.61032 | -12.20114 | 28931 ft | 426 kts | 223° |
| 2026-05-06 12:31 | 30.58807 | -12.22398 | 28654 ft | 427 kts | 224° |
| 2026-05-06 12:31 | 30.56579 | -12.24684 | 28392 ft | 428 kts | 223° |
| 2026-05-06 12:31 | 30.54341 | -12.26978 | 28126 ft | 430 kts | 223° |
| 2026-05-06 12:32 | 30.52101 | -12.29277 | 27864 ft | 431 kts | 224° |
| 2026-05-06 12:32 | 30.49883 | -12.31553 | 27606 ft | 432 kts | 224° |
| 2026-05-06 12:32 | 30.47595 | -12.33895 | 27350 ft | 434 kts | 223° |
| 2026-05-06 12:32 | 30.45359 | -12.36177 | 27098 ft | 435 kts | 223° |
| 2026-05-06 12:33 | 30.43083 | -12.38496 | 26840 ft | 436 kts | 223° |
| 2026-05-06 12:33 | 30.40805 | -12.40821 | 26592 ft | 437 kts | 223° |
| 2026-05-06 12:33 | 30.38513 | -12.43162 | 26340 ft | 441 kts | 223° |
| 2026-05-06 12:33 | 30.36204 | -12.45517 | 26096 ft | 443 kts | 223° |
| 2026-05-06 12:34 | 30.33890 | -12.47875 | 25832 ft | 442 kts | 223° |
| 2026-05-06 12:34 | 30.31585 | -12.50221 | 25591 ft | 442 kts | 223° |
| 2026-05-06 12:34 | 30.29276 | -12.52574 | 25351 ft | 442 kts | 223° |
| 2026-05-06 12:34 | 30.26965 | -12.54928 | 25112 ft | 444 kts | 223° |
| 2026-05-06 12:35 | 30.24643 | -12.57290 | 24878 ft | 445 kts | 223° |
| 2026-05-06 12:35 | 30.22314 | -12.59657 | 24644 ft | 447 kts | 223° |
| 2026-05-06 12:35 | 30.19977 | -12.62034 | 24403 ft | 448 kts | 223° |
| 2026-05-06 12:35 | 30.17630 | -12.64414 | 24187 ft | 450 kts | 223° |
| 2026-05-06 12:36 | 30.15273 | -12.66800 | 23956 ft | 451 kts | 223° |
| 2026-05-06 12:36 | 30.12909 | -12.69192 | 23729 ft | 453 kts | 223° |
| 2026-05-06 12:36 | 30.10533 | -12.71586 | 23472 ft | 454 kts | 223° |
| 2026-05-06 12:36 | 30.08087 | -12.73904 | 23209 ft | 456 kts | 220° |
| 2026-05-06 12:37 | 30.05559 | -12.76126 | 22940 ft | 458 kts | 219° |
| 2026-05-06 12:37 | 30.02976 | -12.78286 | 22679 ft | 459 kts | 218° |
| 2026-05-06 12:37 | 30.00370 | -12.80423 | 22415 ft | 460 kts | 218° |
| 2026-05-06 12:37 | 29.97767 | -12.82560 | 22152 ft | 459 kts | 218° |
| 2026-05-06 12:38 | 29.95181 | -12.84708 | 21897 ft | 457 kts | 218° |
| 2026-05-06 12:38 | 29.92613 | -12.86871 | 21639 ft | 456 kts | 219° |
| 2026-05-06 12:38 | 29.90067 | -12.89037 | 21385 ft | 454 kts | 219° |
| 2026-05-06 12:38 | 29.87532 | -12.91207 | 21134 ft | 453 kts | 219° |
| 2026-05-06 12:39 | 29.85005 | -12.93370 | 20889 ft | 452 kts | 219° |
| 2026-05-06 12:39 | 29.82486 | -12.95526 | 20638 ft | 451 kts | 219° |
| 2026-05-06 12:39 | 29.79971 | -12.97676 | 20397 ft | 449 kts | 219° |
| 2026-05-06 12:39 | 29.77461 | -12.99810 | 20148 ft | 448 kts | 219° |
| 2026-05-06 12:40 | 29.74953 | -13.01933 | 19887 ft | 447 kts | 219° |
| 2026-05-06 12:40 | 29.72454 | -13.04045 | 19650 ft | 444 kts | 219° |
| 2026-05-06 12:40 | 29.69969 | -13.06144 | 19413 ft | 442 kts | 219° |
| 2026-05-06 12:40 | 29.67494 | -13.08239 | 19175 ft | 441 kts | 219° |
| 2026-05-06 12:41 | 29.65034 | -13.10318 | 18942 ft | 433 kts | 219° |
| 2026-05-06 12:41 | 29.62664 | -13.12317 | 18713 ft | 425 kts | 219° |
| 2026-05-06 12:41 | 29.60261 | -13.14347 | 18481 ft | 422 kts | 219° |
| 2026-05-06 12:41 | 29.57929 | -13.16323 | 18243 ft | 422 kts | 219° |
| 2026-05-06 12:42 | 29.55568 | -13.18323 | 17974 ft | 421 kts | 219° |
| 2026-05-06 12:42 | 29.53213 | -13.20315 | 17713 ft | 420 kts | 219° |
| 2026-05-06 12:42 | 29.50864 | -13.22295 | 17455 ft | 419 kts | 219° |
| 2026-05-06 12:42 | 29.48518 | -13.24272 | 17195 ft | 418 kts | 219° |
| 2026-05-06 12:43 | 29.46180 | -13.26243 | 16942 ft | 417 kts | 219° |
| 2026-05-06 12:43 | 29.43844 | -13.28213 | 16676 ft | 416 kts | 219° |
| 2026-05-06 12:43 | 29.41525 | -13.30163 | 16424 ft | 412 kts | 219° |
| 2026-05-06 12:43 | 29.39217 | -13.32103 | 16175 ft | 410 kts | 219° |
| 2026-05-06 12:44 | 29.36917 | -13.34034 | 15924 ft | 409 kts | 219° |
| 2026-05-06 12:44 | 29.34624 | -13.35959 | 15678 ft | 408 kts | 219° |
| 2026-05-06 12:44 | 29.32337 | -13.37883 | 15438 ft | 407 kts | 219° |
| 2026-05-06 12:44 | 29.30059 | -13.39801 | 15204 ft | 406 kts | 219° |
| 2026-05-06 12:45 | 29.27787 | -13.41713 | 15021 ft | 405 kts | 219° |
| 2026-05-06 12:45 | 29.25514 | -13.43618 | 15050 ft | 406 kts | 219° |
| 2026-05-06 12:45 | 29.20955 | -13.47427 | 15051 ft | 406 kts | 219° |
| 2026-05-06 12:46 | 29.18672 | -13.49328 | 15052 ft | 406 kts | 219° |
| 2026-05-06 12:46 | 29.16395 | -13.51237 | 15052 ft | 407 kts | 219° |
| 2026-05-06 12:46 | 29.14174 | -13.53248 | 15053 ft | 407 kts | 222° |
| 2026-05-06 12:46 | 29.12024 | -13.55350 | 15049 ft | 405 kts | 224° |
| 2026-05-06 12:47 | 29.09924 | -13.57490 | 15054 ft | 404 kts | 224° |
| 2026-05-06 12:47 | 29.07840 | -13.59635 | 15051 ft | 403 kts | 224° |
| 2026-05-06 12:47 | 29.05748 | -13.61772 | 15058 ft | 403 kts | 224° |
| 2026-05-06 12:47 | 29.03641 | -13.63895 | 15052 ft | 404 kts | 224° |
| 2026-05-06 12:48 | 29.01522 | -13.66002 | 15055 ft | 404 kts | 223° |
| 2026-05-06 12:48 | 28.99395 | -13.68099 | 15056 ft | 404 kts | 223° |
| 2026-05-06 12:48 | 28.97266 | -13.70191 | 15058 ft | 404 kts | 223° |
| 2026-05-06 12:48 | 28.95132 | -13.72284 | 15055 ft | 404 kts | 223° |
| 2026-05-06 12:49 | 28.92998 | -13.74371 | 15058 ft | 404 kts | 223° |
| 2026-05-06 12:49 | 28.90866 | -13.76458 | 15052 ft | 404 kts | 223° |
| 2026-05-06 12:49 | 28.88737 | -13.78550 | 15053 ft | 403 kts | 223° |
| 2026-05-06 12:49 | 28.86612 | -13.80642 | 15053 ft | 404 kts | 223° |
| 2026-05-06 12:50 | 28.84486 | -13.82734 | 15053 ft | 404 kts | 223° |
| 2026-05-06 12:50 | 28.82356 | -13.84827 | 15048 ft | 404 kts | 223° |
| 2026-05-06 12:50 | 28.80230 | -13.86917 | 15046 ft | 404 kts | 223° |
| 2026-05-06 12:50 | 28.78101 | -13.89005 | 15046 ft | 404 kts | 223° |
| 2026-05-06 12:51 | 28.75971 | -13.91094 | 15050 ft | 404 kts | 223° |
| 2026-05-06 12:51 | 28.73841 | -13.93183 | 15048 ft | 404 kts | 223° |
| 2026-05-06 12:51 | 28.71708 | -13.95273 | 15044 ft | 404 kts | 223° |
| 2026-05-06 12:51 | 28.69577 | -13.97361 | 15050 ft | 404 kts | 223° |
| 2026-05-06 12:52 | 28.67445 | -13.99447 | 15051 ft | 404 kts | 223° |
| 2026-05-06 12:52 | 28.65307 | -14.01533 | 15046 ft | 404 kts | 223° |
| 2026-05-06 12:52 | 28.63169 | -14.03614 | 15051 ft | 405 kts | 223° |
| 2026-05-06 12:52 | 28.61030 | -14.05695 | 15050 ft | 404 kts | 223° |
| 2026-05-06 12:53 | 28.59615 | -14.07075 | 15043 ft | 404 kts | 223° |
| 2026-05-06 12:53 | 28.56760 | -14.09863 | 15038 ft | 404 kts | 223° |
| 2026-05-06 12:53 | 28.55349 | -14.11242 | 15042 ft | 404 kts | 223° |
| 2026-05-06 12:53 | 28.53214 | -14.13328 | 15042 ft | 404 kts | 223° |
| 2026-05-06 12:54 | 28.50390 | -14.16085 | 15039 ft | 404 kts | 223° |
| 2026-05-06 12:54 | 28.48947 | -14.17490 | 15032 ft | 404 kts | 222° |
| 2026-05-06 12:54 | 28.46814 | -14.19564 | 15038 ft | 403 kts | 222° |
| 2026-05-06 12:54 | 28.43993 | -14.22305 | 15041 ft | 403 kts | 222° |
| 2026-05-06 12:55 | 28.42552 | -14.23703 | 15040 ft | 404 kts | 222° |
| 2026-05-06 12:55 | 28.40415 | -14.25775 | 15038 ft | 404 kts | 222° |
| 2026-05-06 12:55 | 28.38279 | -14.27848 | 15038 ft | 404 kts | 222° |
| 2026-05-06 12:55 | 28.36141 | -14.29920 | 15038 ft | 404 kts | 222° |
| 2026-05-06 12:56 | 28.34002 | -14.31992 | 15038 ft | 404 kts | 222° |
| 2026-05-06 12:56 | 28.31862 | -14.34063 | 15038 ft | 404 kts | 222° |
| 2026-05-06 12:56 | 28.29722 | -14.36137 | 15038 ft | 404 kts | 222° |
| 2026-05-06 12:56 | 28.27586 | -14.38209 | 14958 ft | 405 kts | 222° |
| 2026-05-06 12:57 | 28.25449 | -14.40278 | 14711 ft | 403 kts | 222° |
| 2026-05-06 12:57 | 28.23317 | -14.42335 | 14419 ft | 402 kts | 222° |
| 2026-05-06 12:57 | 28.21194 | -14.44381 | 14069 ft | 400 kts | 222° |
| 2026-05-06 12:57 | 28.19076 | -14.46421 | 13708 ft | 398 kts | 222° |
| 2026-05-06 12:58 | 28.16972 | -14.48449 | 13309 ft | 396 kts | 222° |
| 2026-05-06 12:58 | 28.14878 | -14.50470 | 12928 ft | 394 kts | 222° |
| 2026-05-06 12:58 | 28.12794 | -14.52480 | 12546 ft | 393 kts | 222° |
| 2026-05-06 12:58 | 28.10719 | -14.54482 | 12166 ft | 391 kts | 222° |
| 2026-05-06 12:59 | 28.08653 | -14.56476 | 11798 ft | 389 kts | 222° |
| 2026-05-06 12:59 | 28.06593 | -14.58460 | 11425 ft | 388 kts | 222° |
| 2026-05-06 12:59 | 28.04538 | -14.60438 | 11061 ft | 387 kts | 222° |
| 2026-05-06 12:59 | 28.02492 | -14.62407 | 10703 ft | 386 kts | 222° |
| 2026-05-06 13:00 | 28.00479 | -14.64343 | 10354 ft | 384 kts | 223° |
| 2026-05-06 13:00 | 27.98592 | -14.66458 | 10077 ft | 381 kts | 228° |
| 2026-05-06 13:00 | 27.96805 | -14.68573 | 10029 ft | 360 kts | 228° |
| 2026-05-06 13:00 | 27.95126 | -14.70551 | 10039 ft | 338 kts | 228° |
| 2026-05-06 13:01 | 27.93547 | -14.72409 | 10041 ft | 318 kts | 228° |
| 2026-05-06 13:01 | 27.92060 | -14.74162 | 10042 ft | 300 kts | 228° |
| 2026-05-06 13:01 | 27.90646 | -14.75827 | 9953 ft | 288 kts | 229° |
| 2026-05-06 13:01 | 27.89277 | -14.77444 | 9810 ft | 283 kts | 229° |
| 2026-05-06 13:02 | 27.87921 | -14.79052 | 9549 ft | 282 kts | 229° |
| 2026-05-06 13:02 | 27.86571 | -14.80652 | 9293 ft | 281 kts | 229° |
| 2026-05-06 13:02 | 27.85225 | -14.82243 | 9027 ft | 278 kts | 228° |
| 2026-05-06 13:02 | 27.83905 | -14.83800 | 8777 ft | 271 kts | 228° |
| 2026-05-06 13:03 | 27.82617 | -14.85320 | 8525 ft | 265 kts | 229° |
| 2026-05-06 13:03 | 27.81358 | -14.86805 | 8275 ft | 258 kts | 229° |
| 2026-05-06 13:03 | 27.80127 | -14.88254 | 8025 ft | 253 kts | 228° |
| 2026-05-06 13:03 | 27.78923 | -14.89672 | 7781 ft | 248 kts | 229° |
| 2026-05-06 13:04 | 27.77727 | -14.91084 | 7542 ft | 260 kts | 229° |
| 2026-05-06 13:04 | 27.76440 | -14.92611 | 7298 ft | 272 kts | 231° |
| 2026-05-06 13:04 | 27.75461 | -14.94411 | 7053 ft | 269 kts | 253° |
| 2026-05-06 13:04 | 27.75008 | -14.96447 | 6815 ft | 266 kts | 259° |
| 2026-05-06 13:05 | 27.74604 | -14.98488 | 6576 ft | 268 kts | 259° |
| 2026-05-06 13:05 | 27.74201 | -15.00547 | 6334 ft | 268 kts | 259° |
| 2026-05-06 13:05 | 27.73801 | -15.02596 | 6075 ft | 267 kts | 259° |
| 2026-05-06 13:05 | 27.73401 | -15.04643 | 5828 ft | 266 kts | 260° |
| 2026-05-06 13:06 | 27.73004 | -15.06676 | 5586 ft | 265 kts | 259° |
| 2026-05-06 13:06 | 27.72604 | -15.08705 | 5331 ft | 266 kts | 259° |
| 2026-05-06 13:06 | 27.72202 | -15.10736 | 5083 ft | 265 kts | 259° |
| 2026-05-06 13:06 | 27.71802 | -15.12764 | 4713 ft | 264 kts | 259° |
| 2026-05-06 13:07 | 27.71402 | -15.14785 | 4330 ft | 263 kts | 259° |
| 2026-05-06 13:07 | 27.71000 | -15.16816 | 3961 ft | 276 kts | 259° |
| 2026-05-06 13:07 | 27.70556 | -15.19080 | 3787 ft | 317 kts | 259° |
| 2026-05-06 13:07 | 27.70055 | -15.21655 | 3796 ft | 353 kts | 259° |
| 2026-05-06 13:08 | 27.69514 | -15.24418 | 3801 ft | 365 kts | 258° |
| 2026-05-06 13:08 | 27.68957 | -15.27220 | 3798 ft | 366 kts | 258° |
| 2026-05-06 13:08 | 27.68393 | -15.30025 | 3798 ft | 367 kts | 258° |
| 2026-05-06 13:08 | 27.67833 | -15.32793 | 3800 ft | 367 kts | 259° |
| 2026-05-06 13:09 | 27.67270 | -15.35601 | 3797 ft | 367 kts | 258° |
| 2026-05-06 13:09 | 27.66709 | -15.38407 | 3798 ft | 367 kts | 258° |
| 2026-05-06 13:09 | 27.66304 | -15.41174 | 3790 ft | 343 kts | 265° |
| 2026-05-06 13:09 | 27.66241 | -15.43752 | 3796 ft | 315 kts | 280° |
| 2026-05-06 13:10 | 27.66966 | -15.45921 | 3797 ft | 279 kts | 306° |
| 2026-05-06 13:10 | 27.68259 | -15.47354 | 3797 ft | 250 kts | 328° |
| 2026-05-06 13:10 | 27.69792 | -15.48072 | 3798 ft | 231 kts | 349° |
| 2026-05-06 13:10 | 27.71324 | -15.48141 | 3793 ft | 212 kts | 8° |
| 2026-05-06 13:11 | 27.72680 | -15.47703 | 3797 ft | 194 kts | 20° |
| 2026-05-06 13:11 | 27.73877 | -15.47175 | 3768 ft | 178 kts | 20° |
| 2026-05-06 13:11 | 27.75004 | -15.46680 | 3586 ft | 172 kts | 20° |
| 2026-05-06 13:11 | 27.76117 | -15.46190 | 3382 ft | 172 kts | 20° |
| 2026-05-06 13:12 | 27.77231 | -15.45700 | 3159 ft | 171 kts | 20° |
| 2026-05-06 13:12 | 27.78329 | -15.45216 | 2935 ft | 168 kts | 20° |
| 2026-05-06 13:12 | 27.79413 | -15.44739 | 2710 ft | 166 kts | 21° |
| 2026-05-06 13:12 | 27.80483 | -15.44267 | 2491 ft | 165 kts | 21° |
| 2026-05-06 13:13 | 27.81549 | -15.43797 | 2269 ft | 164 kts | 22° |
| 2026-05-06 13:13 | 27.82602 | -15.43333 | 2059 ft | 161 kts | 22° |
| 2026-05-06 13:13 | 27.83607 | -15.42891 | 1838 ft | 146 kts | 23° |
| 2026-05-06 13:13 | 27.84518 | -15.42489 | 1652 ft | 138 kts | 22° |
| 2026-05-06 13:14 | 27.85386 | -15.42106 | 1473 ft | 131 kts | 23° |
| 2026-05-06 13:14 | 27.86233 | -15.41732 | 1299 ft | 130 kts | 24° |
| 2026-05-06 13:14 | 27.87069 | -15.41363 | 1136 ft | 129 kts | 24° |
| 2026-05-06 13:14 | 27.87912 | -15.40991 | 964 ft | 129 kts | 24° |
| 2026-05-06 13:15 | 27.88744 | -15.40623 | 789 ft | 128 kts | 24° |
| 2026-05-06 13:15 | 27.89575 | -15.40242 | 588 ft | 130 kts | 24° |
| 2026-05-06 13:15 | 27.90407 | -15.39870 | 416 ft | 127 kts | 21° |
| 2026-05-06 13:15 | 27.91237 | -15.39520 | 253 ft | 127 kts | 23° |
| 2026-05-06 13:16 | 27.92056 | -15.39158 | 109 ft | 126 kts | 24° |
| 2026-05-06 13:16 | 27.92817 | -15.38819 | 64 ft | 101 kts | 21° |
| 2026-05-06 13:16 | 27.93304 | -15.38604 | 56 ft | 52 kts | 21° |
| 2026-05-06 13:16 | 27.93487 | -15.38527 | 58 ft | 12 kts | 20° |
| 2026-05-06 13:17 | 27.93681 | -15.38442 | 55 ft | 45 kts | 20° |
| 2026-05-06 13:17 | 27.93948 | -15.38439 | 60 ft | 34 kts | 349° |
| 2026-05-06 13:17 | 27.94047 | -15.38499 | 71 ft | 13 kts | 298° |
| 2026-05-06 13:17 | 27.94073 | -15.38580 | 70 ft | 9 kts | 288° |
| 2026-05-06 13:18 | 27.94067 | -15.38620 | 82 ft | 4 kts | 236° |
| 2026-05-06 13:18 | 27.93982 | -15.38666 | 84 ft | 17 kts | 201° |
| 2026-05-06 13:18 | 27.93878 | -15.38711 | 87 ft | 15 kts | 201° |
| 2026-05-06 13:18 | 27.93782 | -15.38754 | 85 ft | 11 kts | 201° |
| 2026-05-06 13:19 | 27.93752 | -15.38791 | 84 ft | 6 kts | 290° |
| 2026-05-06 13:19 | 27.93763 | -15.38827 | 84 ft | 3 kts | 291° |
| 2026-05-06 13:19 | 27.93768 | -15.38840 | 87 ft | 3 kts | 291° |
| 2026-05-06 13:19 | 27.93773 | -15.38855 | 88 ft | 0 kts | 292° |